Time,TemperatureF,DewpointF,PressureIn,WindDirection,WindDirectionDegrees,WindSpeedMPH,WindSpeedGustMPH,Humidity,HourlyPrecipIn,Conditions,Clouds,dailyrainin,SolarRadiationWatts/m^2,SoftwareType,DateUTC
2013-10-06 00:22:00,42.0,33.0,-100.00,WNW,289,20.0,35.0,70,0.00,,,0.00,0.000000,,2013-10-06 05:22:00,
2013-10-06 00:34:00,42.0,33.0,-100.00,WNW,289,20.0,35.0,70,0.00,,,0.00,0.000000,,2013-10-06 05:34:00,
2013-10-06 00:43:00,42.0,33.0,-100.00,WNW,289,20.0,35.0,70,0.00,,,0.00,0.000000,,2013-10-06 05:43:00,
2013-10-06 00:52:00,42.0,33.0,-100.00,WNW,289,20.0,35.0,70,0.00,,,0.00,0.000000,,2013-10-06 05:52:00,
2013-10-06 01:22:00,42.0,35.0,-100.00,WNW,289,17.0,31.0,75,0.00,,,0.00,0.000000,,2013-10-06 06:22:00,
2013-10-06 01:32:00,42.0,35.0,-100.00,WNW,289,17.0,31.0,75,0.00,,,0.00,0.000000,,2013-10-06 06:32:00,
2013-10-06 01:42:00,42.0,35.0,-100.00,WNW,289,17.0,31.0,75,0.00,,,0.00,0.000000,,2013-10-06 06:42:00,
2013-10-06 01:52:00,42.0,35.0,-100.00,WNW,289,17.0,31.0,75,0.00,,,0.00,0.000000,,2013-10-06 06:52:00,
2013-10-06 02:22:00,42.0,35.0,-100.00,WNW,293,19.0,27.0,76,0.00,,,0.00,0.000000,,2013-10-06 07:22:00,
2013-10-06 02:32:00,42.0,35.0,-100.00,WNW,293,19.0,27.0,76,0.00,,,0.00,0.000000,,2013-10-06 07:32:00,
2013-10-06 02:42:00,42.0,35.0,-100.00,WNW,293,19.0,27.0,76,0.00,,,0.00,0.000000,,2013-10-06 07:42:00,
2013-10-06 02:52:00,42.0,35.0,-100.00,WNW,293,19.0,27.0,76,0.00,,,0.00,0.000000,,2013-10-06 07:52:00,
2013-10-06 03:22:00,42.0,36.0,-100.00,WNW,297,18.0,27.0,79,0.00,,,0.00,0.000000,,2013-10-06 08:22:00,
2013-10-06 03:32:00,42.0,36.0,-100.00,WNW,297,18.0,27.0,79,0.00,,,0.00,0.000000,,2013-10-06 08:32:00,
2013-10-06 03:42:00,42.0,36.0,-100.00,WNW,297,18.0,27.0,79,0.00,,,0.00,0.000000,,2013-10-06 08:42:00,
2013-10-06 03:52:00,42.0,36.0,-100.00,WNW,297,18.0,27.0,79,0.00,,,0.00,0.000000,,2013-10-06 08:52:00,
2013-10-06 04:22:00,41.0,37.0,-100.00,WNW,295,17.0,25.0,85,0.00,,,0.00,0.000000,,2013-10-06 09:22:00,
2013-10-06 04:33:00,41.0,37.0,-100.00,WNW,295,17.0,25.0,85,0.00,,,0.00,0.000000,,2013-10-06 09:33:00,
2013-10-06 04:43:00,41.0,37.0,-100.00,WNW,295,17.0,25.0,85,0.00,,,0.00,0.000000,,2013-10-06 09:43:00,
2013-10-06 04:53:00,41.0,37.0,-100.00,WNW,295,17.0,25.0,85,0.00,,,0.00,0.000000,,2013-10-06 09:53:00,
2013-10-06 05:23:00,41.0,39.0,-100.00,WNW,292,14.0,22.0,91,0.00,,,0.00,0.000000,,2013-10-06 10:23:00,
2013-10-06 05:32:00,41.0,39.0,-100.00,WNW,292,14.0,22.0,91,0.00,,,0.00,0.000000,,2013-10-06 10:32:00,
2013-10-06 05:43:00,41.0,39.0,-100.00,WNW,292,14.0,22.0,91,0.00,,,0.00,0.000000,,2013-10-06 10:43:00,
2013-10-06 05:53:00,41.0,39.0,-100.00,WNW,292,14.0,22.0,91,0.00,,,0.00,0.000000,,2013-10-06 10:53:00,
2013-10-06 06:21:00,42.0,38.0,-100.00,WNW,302,14.0,22.0,87,0.00,,,0.00,0.000000,,2013-10-06 11:21:00,
2013-10-06 06:33:00,42.0,38.0,-100.00,WNW,302,14.0,22.0,87,0.00,,,0.00,0.000000,,2013-10-06 11:33:00,
2013-10-06 06:42:00,42.0,38.0,-100.00,WNW,302,14.0,22.0,87,0.00,,,0.00,0.000000,,2013-10-06 11:42:00,
2013-10-06 06:52:00,42.0,38.0,-100.00,WNW,302,14.0,22.0,87,0.00,,,0.00,0.000000,,2013-10-06 11:52:00,
2013-10-06 07:22:00,43.0,39.0,-100.00,WNW,299,16.0,24.0,86,0.00,,,0.00,0.000000,,2013-10-06 12:22:00,
2013-10-06 07:32:00,43.0,39.0,-100.00,WNW,299,16.0,24.0,86,0.00,,,0.00,0.000000,,2013-10-06 12:32:00,
2013-10-06 07:42:00,43.0,39.0,-100.00,WNW,299,16.0,24.0,86,0.00,,,0.00,0.000000,,2013-10-06 12:42:00,
2013-10-06 07:52:00,43.0,39.0,-100.00,WNW,299,16.0,24.0,86,0.00,,,0.00,0.000000,,2013-10-06 12:52:00,
2013-10-06 08:21:00,43.0,39.0,-100.00,WNW,296,15.0,26.0,86,0.00,,,0.00,0.000000,,2013-10-06 13:21:00,
2013-10-06 08:32:00,43.0,39.0,-100.00,WNW,296,15.0,26.0,86,0.00,,,0.00,0.000000,,2013-10-06 13:32:00,
2013-10-06 08:42:00,43.0,39.0,-100.00,WNW,296,15.0,26.0,86,0.00,,,0.00,0.000000,,2013-10-06 13:42:00,
2013-10-06 08:52:00,43.0,39.0,-100.00,WNW,296,15.0,26.0,86,0.00,,,0.00,0.000000,,2013-10-06 13:52:00,
2013-10-06 09:22:00,44.0,39.0,-100.00,WNW,299,14.0,23.0,83,0.00,,,0.00,0.000000,,2013-10-06 14:22:00,
2013-10-06 09:32:00,44.0,39.0,-100.00,WNW,299,14.0,23.0,83,0.00,,,0.00,0.000000,,2013-10-06 14:32:00,
2013-10-06 09:42:00,44.0,39.0,-100.00,WNW,299,14.0,23.0,83,0.00,,,0.00,0.000000,,2013-10-06 14:42:00,
2013-10-06 09:52:00,44.0,39.0,-100.00,WNW,299,14.0,23.0,83,0.00,,,0.00,0.000000,,2013-10-06 14:52:00,
2013-10-06 10:22:00,45.0,39.0,-100.00,NW,305,17.0,25.0,79,0.00,,,-99.99,0.000000,,2013-10-06 15:22:00,
2013-10-06 10:34:00,45.0,39.0,-100.00,NW,305,17.0,25.0,79,0.00,,,-99.99,0.000000,,2013-10-06 15:34:00,
2013-10-06 10:43:00,45.0,39.0,-100.00,NW,305,17.0,25.0,79,0.00,,,-99.99,0.000000,,2013-10-06 15:43:00,
2013-10-06 10:53:00,45.0,39.0,-100.00,NW,305,17.0,25.0,79,0.00,,,-99.99,0.000000,,2013-10-06 15:53:00,
2013-10-06 11:23:00,49.0,39.0,-100.00,NW,305,20.0,29.0,67,0.00,,,0.00,0.000000,,2013-10-06 16:23:00,
2013-10-06 11:33:00,49.0,39.0,-100.00,NW,305,20.0,29.0,67,0.00,,,0.00,0.000000,,2013-10-06 16:33:00,
2013-10-06 11:42:00,49.0,39.0,-100.00,NW,305,20.0,29.0,67,0.00,,,0.00,0.000000,,2013-10-06 16:42:00,
2013-10-06 11:53:00,49.0,39.0,-100.00,NW,305,20.0,29.0,67,0.00,,,0.00,0.000000,,2013-10-06 16:53:00,
2013-10-06 12:22:00,52.0,40.0,-100.00,NW,312,16.0,30.0,64,0.00,,,0.00,0.000000,,2013-10-06 17:22:00,
2013-10-06 12:33:00,52.0,40.0,-100.00,NW,312,16.0,30.0,64,0.00,,,0.00,0.000000,,2013-10-06 17:33:00,
2013-10-06 12:42:00,52.0,40.0,-100.00,NW,312,16.0,30.0,64,0.00,,,0.00,0.000000,,2013-10-06 17:42:00,
2013-10-06 12:52:00,52.0,40.0,-100.00,NW,312,16.0,30.0,64,0.00,,,0.00,0.000000,,2013-10-06 17:52:00,
2013-10-06 13:22:00,57.0,39.0,-100.00,NW,315,19.0,31.0,51,0.00,,,0.00,0.000000,,2013-10-06 18:22:00,
2013-10-06 13:32:00,57.0,39.0,-100.00,NW,315,19.0,31.0,51,0.00,,,0.00,0.000000,,2013-10-06 18:32:00,
2013-10-06 13:42:00,57.0,39.0,-100.00,NW,315,19.0,31.0,51,0.00,,,0.00,0.000000,,2013-10-06 18:42:00,
2013-10-06 13:52:00,57.0,39.0,-100.00,NW,315,19.0,31.0,51,0.00,,,0.00,0.000000,,2013-10-06 18:52:00,
2013-10-06 14:22:00,61.0,39.0,-100.00,NW,314,22.0,31.0,44,0.00,,,0.00,0.000000,,2013-10-06 19:22:00,
2013-10-06 14:32:00,61.0,39.0,-100.00,NW,314,22.0,31.0,44,0.00,,,0.00,0.000000,,2013-10-06 19:32:00,
2013-10-06 14:42:00,61.0,39.0,-100.00,NW,314,22.0,31.0,44,0.00,,,0.00,0.000000,,2013-10-06 19:42:00,
2013-10-06 14:52:00,61.0,39.0,-100.00,NW,314,22.0,31.0,44,0.00,,,0.00,0.000000,,2013-10-06 19:52:00,
2013-10-06 15:22:00,63.0,25.0,-100.00,NW,311,22.0,32.0,23,0.00,,,0.00,0.000000,,2013-10-06 20:22:00,
2013-10-06 15:32:00,63.0,25.0,-100.00,NW,311,22.0,32.0,23,0.00,,,0.00,0.000000,,2013-10-06 20:32:00,
2013-10-06 15:42:00,63.0,25.0,-100.00,NW,311,22.0,32.0,23,0.00,,,0.00,0.000000,,2013-10-06 20:42:00,
2013-10-06 15:52:00,63.0,25.0,-100.00,NW,311,22.0,32.0,23,0.00,,,0.00,0.000000,,2013-10-06 20:52:00,
2013-10-06 16:22:00,64.0,25.0,-100.00,NW,307,21.0,32.0,23,0.00,,,0.00,0.000000,,2013-10-06 21:22:00,
2013-10-06 16:34:00,64.0,25.0,-100.00,NW,307,21.0,32.0,23,0.00,,,0.00,0.000000,,2013-10-06 21:34:00,
2013-10-06 16:44:00,64.0,25.0,-100.00,NW,307,21.0,32.0,23,0.00,,,0.00,0.000000,,2013-10-06 21:44:00,
2013-10-06 16:54:00,64.0,25.0,-100.00,NW,307,21.0,32.0,23,0.00,,,0.00,0.000000,,2013-10-06 21:54:00,
2013-10-06 17:24:00,65.0,22.0,-100.00,NW,315,17.0,30.0,19,0.00,,,0.00,0.000000,,2013-10-06 22:24:00,
2013-10-06 17:33:00,65.0,22.0,-100.00,NW,315,17.0,30.0,19,0.00,,,0.00,0.000000,,2013-10-06 22:33:00,
2013-10-06 17:43:00,65.0,22.0,-100.00,NW,315,17.0,30.0,19,0.00,,,0.00,0.000000,,2013-10-06 22:43:00,
2013-10-06 17:53:00,65.0,22.0,-100.00,NW,315,17.0,30.0,19,0.00,,,0.00,0.000000,,2013-10-06 22:53:00,
2013-10-06 18:22:00,64.0,25.0,-100.00,NW,319,16.0,26.0,23,0.00,,,0.00,0.000000,,2013-10-06 23:22:00,
2013-10-06 18:34:00,64.0,25.0,-100.00,NW,319,16.0,26.0,23,0.00,,,0.00,0.000000,,2013-10-06 23:34:00,
2013-10-06 18:42:00,64.0,25.0,-100.00,NW,319,16.0,26.0,23,0.00,,,0.00,0.000000,,2013-10-06 23:42:00,
2013-10-06 18:53:00,64.0,25.0,-100.00,NW,319,16.0,26.0,23,0.00,,,0.00,0.000000,,2013-10-06 23:53:00,
2013-10-06 19:22:00,59.0,25.0,-100.00,NW,316,11.0,25.0,27,0.00,,,0.00,0.000000,,2013-10-07 00:22:00,
2013-10-06 19:32:00,59.0,25.0,-100.00,NW,316,11.0,25.0,27,0.00,,,0.00,0.000000,,2013-10-07 00:32:00,
2013-10-06 19:42:00,59.0,25.0,-100.00,NW,316,11.0,25.0,27,0.00,,,0.00,0.000000,,2013-10-07 00:42:00,
2013-10-06 19:52:00,59.0,25.0,-100.00,NW,316,11.0,25.0,27,0.00,,,0.00,0.000000,,2013-10-07 00:52:00,
2013-10-06 20:22:00,51.0,29.0,-100.00,NW,306,8.0,11.0,43,0.00,,,0.00,0.000000,,2013-10-07 01:22:00,
2013-10-06 20:32:00,51.0,29.0,-100.00,NW,306,8.0,11.0,43,0.00,,,0.00,0.000000,,2013-10-07 01:32:00,
2013-10-06 20:42:00,51.0,29.0,-100.00,NW,306,8.0,11.0,43,0.00,,,0.00,0.000000,,2013-10-07 01:42:00,
2013-10-06 20:53:00,51.0,29.0,-100.00,NW,306,8.0,11.0,43,0.00,,,0.00,0.000000,,2013-10-07 01:53:00,
2013-10-06 21:22:00,51.0,34.0,-100.00,WNW,302,9.0,11.0,51,0.00,,,0.00,0.000000,,2013-10-07 02:22:00,
2013-10-06 21:32:00,51.0,34.0,-100.00,WNW,302,9.0,11.0,51,0.00,,,0.00,0.000000,,2013-10-07 02:32:00,
2013-10-06 21:42:00,51.0,34.0,-100.00,WNW,302,9.0,11.0,51,0.00,,,0.00,0.000000,,2013-10-07 02:42:00,
2013-10-06 21:53:00,51.0,34.0,-100.00,WNW,302,9.0,11.0,51,0.00,,,0.00,0.000000,,2013-10-07 02:53:00,
2013-10-06 22:22:00,48.0,35.0,-100.00,NW,306,9.0,11.0,60,0.00,,,0.00,0.000000,,2013-10-07 03:22:00,
2013-10-06 22:34:00,48.0,35.0,-100.00,NW,306,9.0,11.0,60,0.00,,,0.00,0.000000,,2013-10-07 03:34:00,
2013-10-06 22:44:00,48.0,35.0,-100.00,NW,306,9.0,11.0,60,0.00,,,0.00,0.000000,,2013-10-07 03:44:00,
2013-10-06 22:54:00,48.0,35.0,-100.00,NW,306,9.0,11.0,60,0.00,,,0.00,0.000000,,2013-10-07 03:54:00,
2013-10-06 23:24:00,44.0,33.0,-100.00,WNW,286,6.0,10.0,66,0.00,,,0.00,0.000000,,2013-10-07 04:24:00,
2013-10-06 23:34:00,44.0,33.0,-100.00,WNW,286,6.0,10.0,66,0.00,,,0.00,0.000000,,2013-10-07 04:34:00,
2013-10-06 23:44:00,44.0,33.0,-100.00,WNW,286,6.0,10.0,66,0.00,,,0.00,0.000000,,2013-10-07 04:44:00,
2013-10-06 23:53:00,44.0,33.0,-100.00,WNW,286,6.0,10.0,66,0.00,,,0.00,0.000000,,2013-10-07 04:53:00,